Pleasant Hill, Louisiana
Current Conditions -  °F | °C
As of 8:35 PM on Tuesday 21 Oct 2014 (Local Time) from KIER Reporting Station
Clear Clear  
Wind Chill: 64°   Ceiling: Unl
Heat Index: 64°   Visibility: 7mi
Dew Point: 63°   Wind: 0mph
Humidity: 98%   Direction: NA
Pressure: 30.04"   Gusts: NA
Location:  31.82°N, 93.51°W
Report Text: KIER 220135Z AUTO 00000KT 7SM CLR 18/17 A3004 RMK AO2 T01760173
Loading
Personal Weather Stations






























Interactive Weather Map New forecast layout! Learn more

10-Day Weather Forecast

Advertisements
Track Severe Weather on mobile